Terminal Aerodrome Forecast
Issued by NWS

Home | Current Version | Previous Version | Text Only | Print | Product List | Glossary On
Versions: 1 2 3 4 5 6 7 8 9 10 11 12 13 14 15 16 17 18 19 20 21 22 23 24 25 26
000
FTUS46 KSEW 250532
TAFSEA
TAF
KSEA 250532Z 2506/2612 20006KT P6SM SCT015 BKN045
      TEMPO 2506/2510 BKN015 BKN045
     FM251000 20006KT P6SM BKN015 BKN045
      TEMPO 2510/2514 SCT015 BKN045
     FM251400 18008KT P6SM SCT020 BKN040
      TEMPO 2514/2518 BKN020 BKN040
     FM251800 18008KT P6SM BKN040 BKN120
     FM260100 20012KT P6SM -RA OVC040
     FM260600 17012KT P6SM -RA OVC030=

USA.gov is the U.S. government's official web portal to all federal, state and local government web resources and services.